Time;durP1;ratioP1;P1;durP2;ratioP2;P2;SDS_P1;SDS_P2;PMS_P1;PMS_P2;Temp;Humidity;BMP_temperature;BMP_pressure;BME280_temperature;BME280_humidity;BME280_pressure;Samples;Min_cycle;Max_cycle;Signal;HPM_P1;HPM_P2
2024/03/20 00:01:39;;;;;;;2.25;1.02;;;6.60;99.90;;;;;;5074880;28;20197;-58
2024/03/20 00:04:05;;;;;;;1.27;1.00;;;6.70;99.90;;;;;;5074644;28;20549;-58
2024/03/20 00:06:33;;;;;;;1.07;0.97;;;6.80;99.90;;;;;;5074834;28;20233;-58
2024/03/20 00:09:00;;;;;;;0.93;0.80;;;6.90;99.90;;;;;;5074345;28;20248;-58
2024/03/20 00:11:26;;;;;;;0.90;0.90;;;6.80;99.90;;;;;;5074665;28;20441;-59
2024/03/20 00:13:52;;;;;;;1.13;0.70;;;6.70;99.90;;;;;;5074427;28;20213;-58
2024/03/20 00:16:18;;;;;;;0.60;0.60;;;6.70;99.90;;;;;;5074662;28;20790;-58
2024/03/20 00:18:43;;;;;;;1.00;0.97;;;6.70;99.90;;;;;;5074096;28;20201;-58
2024/03/20 00:21:10;;;;;;;1.17;1.07;;;6.60;99.90;;;;;;5074104;28;20204;-57
2024/03/20 00:23:35;;;;;;;1.30;1.20;;;6.60;99.90;;;;;;5073140;28;20639;-58
2024/03/20 00:26:01;;;;;;;1.30;1.00;;;6.50;99.90;;;;;;5074347;28;20229;-57
2024/03/20 00:28:27;;;;;;;2.67;2.20;;;6.50;99.90;;;;;;5073805;28;20174;-57
2024/03/20 00:30:52;;;;;;;2.10;1.53;;;6.40;99.90;;;;;;5074238;28;20208;-58
2024/03/20 00:33:18;;;;;;;3.47;1.70;;;6.50;99.90;;;;;;5074194;28;20742;-58
2024/03/20 00:35:43;;;;;;;4.70;1.40;;;6.50;99.90;;;;;;5074313;28;20172;-58
2024/03/20 00:38:09;;;;;;;4.70;1.23;;;6.50;99.90;;;;;;5073891;28;20199;-58
2024/03/20 00:40:35;;;;;;;1.03;0.80;;;6.60;99.90;;;;;;5073750;28;20250;-58
2024/03/20 00:43:00;;;;;;;1.07;1.00;;;6.50;99.90;;;;;;5073893;28;20169;-58
2024/03/20 00:45:28;;;;;;;0.60;0.60;;;6.50;99.90;;;;;;5073948;28;20180;-58
2024/03/20 00:47:54;;;;;;;0.80;0.80;;;6.40;99.90;;;;;;5073854;28;20181;-57
2024/03/20 00:50:20;;;;;;;1.98;0.85;;;6.30;99.90;;;;;;5073721;28;20666;-58
2024/03/20 00:52:45;;;;;;;0.87;0.87;;;6.30;99.90;;;;;;5073794;28;20168;-58
2024/03/20 00:55:11;;;;;;;1.37;1.27;;;6.30;99.90;;;;;;5073796;28;20175;-58
2024/03/20 00:57:37;;;;;;;0.90;0.90;;;6.30;99.90;;;;;;5073729;28;20656;-58
2024/03/20 01:00:04;;;;;;;0.77;0.77;;;6.30;99.90;;;;;;5073337;28;20736;-58
2024/03/20 01:02:29;;;;;;;0.95;0.85;;;6.40;99.90;;;;;;5073801;28;20399;-58
2024/03/20 01:04:57;;;;;;;1.20;0.80;;;6.20;99.90;;;;;;5073596;28;20176;-58
2024/03/20 01:07:23;;;;;;;0.90;0.90;;;6.30;99.90;;;;;;5073507;28;20252;-57
2024/03/20 01:09:48;;;;;;;1.00;0.90;;;6.30;99.90;;;;;;5073839;28;20214;-58
2024/03/20 01:12:14;;;;;;;0.90;0.80;;;6.30;99.90;;;;;;5073780;28;20172;-58
2024/03/20 01:14:40;;;;;;;0.80;0.80;;;6.30;99.90;;;;;;5073344;28;20189;-58
2024/03/20 01:17:05;;;;;;;0.50;0.50;;;6.30;99.90;;;;;;5073409;28;20413;-58
2024/03/20 01:19:31;;;;;;;1.07;1.07;;;6.30;99.90;;;;;;5073009;28;20199;-58
2024/03/20 01:21:57;;;;;;;1.63;0.90;;;6.40;99.90;;;;;;5073274;28;20430;-58
2024/03/20 01:24:22;;;;;;;1.03;1.00;;;6.30;99.90;;;;;;5073573;28;20164;-58
2024/03/20 01:26:48;;;;;;;1.30;0.90;;;6.20;99.90;;;;;;5073007;28;20168;-58
2024/03/20 01:29:13;;;;;;;1.27;1.10;;;6.30;99.90;;;;;;5072691;28;20267;-58
2024/03/20 01:31:39;;;;;;;0.93;0.93;;;6.20;99.90;;;;;;5073337;28;20655;-58
2024/03/20 01:34:05;;;;;;;1.37;0.70;;;6.30;99.90;;;;;;5072738;28;20173;-58
2024/03/20 01:36:30;;;;;;;0.87;0.83;;;6.40;99.90;;;;;;5073003;28;20230;-58
2024/03/20 01:38:56;;;;;;;0.80;0.80;;;6.40;99.90;;;;;;5072502;28;20760;-58
2024/03/20 01:41:21;;;;;;;0.90;0.90;;;6.30;99.90;;;;;;5072691;28;20273;-58
2024/03/20 01:43:54;;;;;;;2.10;1.00;;;6.30;99.90;;;;;;5072805;28;20197;-57
2024/03/20 01:46:33;;;;;;;0.93;0.90;;;6.30;99.90;;;;;;5072791;28;20316;-57
2024/03/20 01:48:59;;;;;;;0.82;0.82;;;6.20;99.90;;;;;;5072445;28;20204;-58
2024/03/20 01:51:27;;;;;;;0.95;0.95;;;6.10;99.90;;;;;;5072662;28;20249;-58
2024/03/20 01:53:55;;;;;;;0.95;0.80;;;6.10;99.90;;;;;;5072532;28;20171;-57
2024/03/20 01:56:22;;;;;;;1.90;0.80;;;6.10;99.90;;;;;;5072802;28;20226;-57
2024/03/20 01:58:47;;;;;;;0.90;0.90;;;6.10;99.90;;;;;;5072341;28;20292;-56
2024/03/20 02:01:13;;;;;;;1.17;1.10;;;6.20;99.90;;;;;;5072395;28;20674;-58
2024/03/20 02:03:39;;;;;;;0.80;0.80;;;6.20;99.90;;;;;;5072411;28;20171;-58
2024/03/20 02:06:04;;;;;;;1.03;1.03;;;6.20;99.90;;;;;;5072375;28;20167;-58
2024/03/20 02:08:31;;;;;;;1.97;1.00;;;6.30;99.90;;;;;;5071821;28;20189;-59
2024/03/20 02:10:56;;;;;;;0.70;0.70;;;6.20;99.90;;;;;;5072540;28;20184;-58
2024/03/20 02:13:22;;;;;;;1.00;0.70;;;6.30;99.90;;;;;;5072200;28;20173;-58
2024/03/20 02:15:48;;;;;;;0.53;0.53;;;6.10;99.90;;;;;;5072216;28;20171;-58
2024/03/20 02:18:14;;;;;;;1.00;1.00;;;6.20;99.90;;;;;;5072112;28;20175;-58
2024/03/20 02:20:39;;;;;;;1.60;1.50;;;6.10;99.90;;;;;;5071887;28;20201;-57
2024/03/20 02:23:05;;;;;;;0.90;0.90;;;6.20;99.90;;;;;;5072049;28;20654;-56
2024/03/20 02:25:31;;;;;;;3.43;1.10;;;6.20;99.90;;;;;;5072072;28;20166;-57
2024/03/20 02:27:57;;;;;;;0.97;0.97;;;6.30;99.90;;;;;;5071873;28;20530;-59
2024/03/20 02:30:24;;;;;;;1.33;1.23;;;6.30;99.90;;;;;;5071733;28;20189;-57
2024/03/20 02:32:50;;;;;;;1.70;1.30;;;6.20;99.90;;;;;;5072363;28;20177;-56
2024/03/20 02:35:16;;;;;;;1.15;0.82;;;6.20;99.90;;;;;;5071847;28;20173;-58
2024/03/20 02:37:41;;;;;;;1.30;0.70;;;6.30;99.90;;;;;;5072568;28;20187;-57
2024/03/20 02:40:08;;;;;;;1.43;0.73;;;6.20;99.90;;;;;;5071403;28;20288;-57
2024/03/20 02:42:34;;;;;;;3.00;1.35;;;6.10;99.90;;;;;;5072078;28;20169;-57
2024/03/20 02:45:00;;;;;;;1.23;1.13;;;6.00;99.90;;;;;;5071049;28;20243;-58
2024/03/20 02:47:26;;;;;;;0.90;0.90;;;5.90;99.90;;;;;;5071821;28;20167;-59
2024/03/20 02:49:53;;;;;;;1.00;1.00;;;5.90;99.90;;;;;;5071383;28;20441;-58
2024/03/20 02:52:19;;;;;;;1.05;0.95;;;5.90;99.90;;;;;;5071619;28;20193;-58
2024/03/20 02:54:45;;;;;;;1.30;1.20;;;6.10;99.90;;;;;;5071756;28;20534;-57
2024/03/20 02:57:11;;;;;;;2.33;0.90;;;6.10;99.90;;;;;;5071919;28;20178;-58
2024/03/20 02:59:36;;;;;;;2.43;1.47;;;6.10;99.90;;;;;;5071426;28;20683;-58
2024/03/20 03:02:02;;;;;;;1.30;1.20;;;6.10;99.90;;;;;;5071602;28;20225;-58
2024/03/20 03:04:28;;;;;;;0.93;0.90;;;6.10;99.90;;;;;;5072041;28;20170;-58
2024/03/20 03:06:54;;;;;;;1.37;1.03;;;6.10;99.90;;;;;;5071519;28;20395;-57
2024/03/20 03:09:20;;;;;;;0.95;0.93;;;6.10;99.90;;;;;;5071187;28;20743;-57
2024/03/20 03:11:47;;;;;;;2.13;1.30;;;6.10;99.90;;;;;;5071617;28;20218;-57
2024/03/20 03:14:13;;;;;;;1.20;1.10;;;6.10;99.90;;;;;;5071455;28;20192;-57
2024/03/20 03:16:39;;;;;;;1.27;0.98;;;6.10;99.90;;;;;;5071571;28;20170;-58
2024/03/20 03:19:05;;;;;;;3.13;1.07;;;6.10;99.90;;;;;;5071188;28;20247;-57
2024/03/20 03:21:31;;;;;;;0.80;0.80;;;6.10;99.90;;;;;;5071192;28;20201;-58
2024/03/20 03:23:57;;;;;;;1.15;1.05;;;6.00;99.90;;;;;;5071395;28;20213;-57
2024/03/20 03:26:23;;;;;;;0.77;0.73;;;5.90;99.90;;;;;;5071463;28;20165;-56
2024/03/20 03:28:50;;;;;;;0.82;0.70;;;5.70;99.90;;;;;;5071112;28;20583;-57
2024/03/20 03:31:15;;;;;;;0.73;0.73;;;5.70;99.90;;;;;;5071330;28;20190;-58
2024/03/20 03:33:41;;;;;;;1.43;0.83;;;5.70;99.90;;;;;;5071269;28;20172;-58
2024/03/20 03:36:09;;;;;;;1.17;1.10;;;5.80;99.90;;;;;;5071225;28;20681;-58
2024/03/20 03:38:35;;;;;;;1.88;1.25;;;5.90;99.90;;;;;;5070797;28;20448;-58
2024/03/20 03:41:04;;;;;;;0.80;0.80;;;6.00;99.90;;;;;;5071125;28;20678;-56
2024/03/20 03:43:30;;;;;;;1.13;1.02;;;6.00;99.90;;;;;;5070136;28;20181;-58
2024/03/20 03:45:57;;;;;;;1.17;1.08;;;5.80;99.90;;;;;;5071249;28;20524;-57
2024/03/20 03:48:24;;;;;;;1.00;0.88;;;6.00;99.90;;;;;;5070909;28;20176;-56
2024/03/20 03:50:50;;;;;;;1.52;1.27;;;5.80;99.90;;;;;;5071225;28;20178;-57
2024/03/20 03:53:16;;;;;;;1.45;1.35;;;5.80;99.90;;;;;;5071125;28;20191;-57
2024/03/20 03:55:42;;;;;;;0.80;0.77;;;5.80;99.90;;;;;;5071138;28;20251;-57
2024/03/20 03:58:08;;;;;;;1.47;1.37;;;5.50;99.90;;;;;;5074379;28;20718;-57
2024/03/20 04:00:35;;;;;;;1.25;1.05;;;5.80;99.90;;;;;;5074423;28;20530;-58
2024/03/20 04:03:01;;;;;;;1.50;1.40;;;5.80;99.90;;;;;;5074846;28;20208;-58
2024/03/20 04:05:27;;;;;;;1.10;1.00;;;5.80;99.90;;;;;;5075628;28;20178;-57
2024/03/20 04:07:53;;;;;;;0.90;0.90;;;5.80;99.90;;;;;;5074710;28;20260;-58
2024/03/20 04:10:20;;;;;;;1.50;1.40;;;5.70;99.90;;;;;;5074442;28;20196;-57
2024/03/20 04:12:45;;;;;;;0.70;0.70;;;5.60;99.90;;;;;;5074585;28;20260;-58
2024/03/20 04:15:12;;;;;;;1.23;0.90;;;5.60;99.90;;;;;;5074573;28;20258;-58
2024/03/20 04:17:38;;;;;;;0.70;0.70;;;5.60;99.90;;;;;;5074398;28;20174;-58
2024/03/20 04:20:04;;;;;;;0.98;0.98;;;5.60;99.90;;;;;;5074008;28;20203;-58
2024/03/20 04:22:30;;;;;;;0.60;0.60;;;5.60;99.90;;;;;;5074399;28;20731;-58
2024/03/20 04:24:56;;;;;;;1.10;0.90;;;5.50;99.90;;;;;;5074406;28;20165;-58
2024/03/20 04:27:21;;;;;;;0.90;0.90;;;5.70;99.90;;;;;;5074475;28;20193;-58
2024/03/20 04:29:47;;;;;;;0.80;0.80;;;5.70;99.90;;;;;;5074009;28;20197;-58
2024/03/20 04:32:13;;;;;;;1.43;0.80;;;5.80;99.90;;;;;;5074199;28;20177;-57
2024/03/20 04:34:39;;;;;;;0.80;0.80;;;5.80;99.90;;;;;;5074480;28;20184;-58
2024/03/20 04:37:04;;;;;;;0.93;0.93;;;5.80;99.90;;;;;;5074253;28;20941;-57
2024/03/20 04:39:30;;;;;;;1.70;1.10;;;5.90;99.90;;;;;;5073666;28;20206;-58
2024/03/20 04:41:56;;;;;;;1.08;1.08;;;5.90;99.90;;;;;;5073946;28;20207;-58
2024/03/20 04:44:22;;;;;;;1.07;0.97;;;5.90;99.90;;;;;;5074034;28;20186;-58
2024/03/20 04:46:47;;;;;;;1.03;1.03;;;5.90;99.90;;;;;;5073860;28;20652;-58
2024/03/20 04:49:13;;;;;;;2.33;1.07;;;5.70;99.90;;;;;;5073549;28;20275;-57
2024/03/20 04:51:39;;;;;;;1.83;1.03;;;5.60;99.90;;;;;;5074111;28;20681;-58
2024/03/20 04:54:04;;;;;;;0.93;0.77;;;5.60;99.90;;;;;;5073818;28;20253;-58
2024/03/20 04:56:30;;;;;;;0.73;0.73;;;5.60;99.90;;;;;;5073857;28;20181;-58
2024/03/20 04:58:55;;;;;;;2.73;1.00;;;5.70;99.90;;;;;;5073421;28;20220;-58
2024/03/20 05:01:21;;;;;;;1.17;0.83;;;5.90;99.90;;;;;;5073547;28;20239;-58
2024/03/20 05:03:47;;;;;;;0.70;0.70;;;5.70;99.90;;;;;;5073602;28;20673;-58
2024/03/20 05:06:13;;;;;;;1.95;1.25;;;5.80;99.90;;;;;;5073570;28;20219;-57
2024/03/20 05:08:39;;;;;;;0.73;0.73;;;5.80;99.90;;;;;;5072526;28;20197;-58
2024/03/20 05:11:04;;;;;;;0.93;0.93;;;5.70;99.90;;;;;;5073564;28;20618;-58
2024/03/20 05:13:30;;;;;;;1.27;1.20;;;5.80;99.90;;;;;;5073443;28;20234;-58
2024/03/20 05:15:55;;;;;;;0.93;0.93;;;5.80;99.90;;;;;;5073369;28;20207;-57
2024/03/20 05:18:21;;;;;;;1.70;1.17;;;5.70;99.90;;;;;;5073627;28;20714;-58
2024/03/20 05:20:47;;;;;;;0.97;0.90;;;5.60;99.90;;;;;;5073331;28;20205;-58
2024/03/20 05:23:12;;;;;;;1.07;1.00;;;5.60;99.90;;;;;;5073382;28;20168;-57
2024/03/20 05:25:39;;;;;;;0.73;0.73;;;5.60;99.90;;;;;;5073202;28;20319;-58
2024/03/20 05:28:06;;;;;;;2.22;1.20;;;5.70;99.90;;;;;;5073371;28;20203;-58
2024/03/20 05:30:32;;;;;;;0.80;0.80;;;5.60;99.90;;;;;;5073264;28;20218;-57
2024/03/20 05:32:57;;;;;;;1.50;1.40;;;5.60;99.90;;;;;;5073987;28;20173;-58
2024/03/20 05:35:23;;;;;;;1.00;0.93;;;5.70;99.90;;;;;;5073080;28;20417;-58
2024/03/20 05:37:49;;;;;;;0.97;0.93;;;5.70;99.90;;;;;;5072009;28;20217;-56
2024/03/20 05:40:16;;;;;;;2.30;0.77;;;5.70;99.90;;;;;;5072455;28;20221;-52
2024/03/20 05:42:42;;;;;;;1.50;1.05;;;5.70;99.90;;;;;;5072834;28;20176;-56
2024/03/20 05:45:08;;;;;;;4.88;1.70;;;5.70;99.90;;;;;;5072658;28;20171;-58
2024/03/20 05:47:34;;;;;;;1.67;1.20;;;5.80;99.90;;;;;;5127039;22;20227;-60
2024/03/20 05:50:00;;;;;;;2.17;1.27;;;5.70;99.90;;;;;;5133213;27;20164;-60
2024/03/20 05:52:26;;;;;;;1.00;1.00;;;5.70;99.90;;;;;;5133517;27;20402;-60
2024/03/20 05:54:52;;;;;;;1.47;1.20;;;5.70;99.90;;;;;;5133732;27;20530;-60
2024/03/20 05:57:17;;;;;;;1.37;1.27;;;5.70;99.90;;;;;;5143894;27;20656;-60
2024/03/20 05:59:43;;;;;;;1.40;1.30;;;5.80;99.90;;;;;;5154419;27;20408;-60
2024/03/20 06:02:09;;;;;;;1.40;1.30;;;5.90;99.90;;;;;;5154454;27;20714;-60
2024/03/20 06:04:34;;;;;;;2.00;1.30;;;6.00;99.90;;;;;;5154504;27;20195;-60
2024/03/20 06:07:01;;;;;;;5.07;1.57;;;6.00;99.90;;;;;;5154296;27;20665;-60
2024/03/20 06:09:31;;;;;;;1.70;1.40;;;6.10;99.90;;;;;;5153989;27;20347;-60
2024/03/20 06:11:57;;;;;;;3.50;2.47;;;6.20;99.90;;;;;;5154472;27;20568;-60
2024/03/20 06:14:23;;;;;;;1.70;1.20;;;6.20;99.90;;;;;;5154006;27;20181;-60
2024/03/20 06:16:48;;;;;;;1.40;1.30;;;6.10;99.90;;;;;;5154096;27;20187;-61
2024/03/20 06:19:14;;;;;;;1.77;1.17;;;6.20;99.90;;;;;;5153757;27;20659;-61
2024/03/20 06:21:41;;;;;;;1.90;1.80;;;6.20;99.90;;;;;;5153988;27;20255;-60
2024/03/20 06:24:07;;;;;;;1.60;1.48;;;6.20;99.90;;;;;;5153873;27;20184;-60
2024/03/20 06:26:33;;;;;;;1.08;1.00;;;6.30;99.90;;;;;;5153656;27;20202;-60
2024/03/20 06:28:59;;;;;;;1.43;1.33;;;6.40;99.90;;;;;;5153418;27;20701;-60
2024/03/20 06:31:25;;;;;;;1.30;1.20;;;6.50;99.90;;;;;;5153676;27;20545;-60
2024/03/20 06:33:51;;;;;;;1.42;1.33;;;6.60;99.90;;;;;;5153756;27;20178;-61
2024/03/20 06:36:17;;;;;;;1.20;1.10;;;6.80;99.90;;;;;;5153751;27;20670;-61
2024/03/20 06:38:45;;;;;;;2.00;1.77;;;6.80;99.90;;;;;;5153460;27;20217;-60
2024/03/20 06:41:13;;;;;;;1.90;1.30;;;6.80;99.90;;;;;;5153635;27;20254;-60
2024/03/20 06:43:38;;;;;;;1.30;1.15;;;6.90;99.90;;;;;;5153816;27;20272;-61
2024/03/20 06:46:05;;;;;;;1.77;1.67;;;7.00;99.90;;;;;;5153733;27;20196;-60
2024/03/20 06:48:31;;;;;;;3.60;1.38;;;7.10;99.90;;;;;;5153277;27;20822;-60
2024/03/20 06:51:00;;;;;;;1.63;1.27;;;7.20;99.90;;;;;;5153496;27;20197;-61
2024/03/20 06:53:26;;;;;;;1.80;1.33;;;7.30;99.90;;;;;;5153505;27;20177;-60
2024/03/20 06:55:55;;;;;;;4.50;2.00;;;7.60;99.90;;;;;;5153659;27;20269;-61
2024/03/20 06:58:22;;;;;;;4.05;3.65;;;8.00;99.90;;;;;;5153352;27;20215;-60
2024/03/20 07:00:48;;;;;;;5.90;3.60;;;8.30;99.90;;;;;;5153343;27;20463;-61
2024/03/20 07:03:14;;;;;;;4.00;3.60;;;8.70;99.90;;;;;;5153391;27;20189;-60
2024/03/20 07:05:40;;;;;;;4.93;3.58;;;9.10;99.90;;;;;;5153263;27;20408;-60
2024/03/20 07:08:09;;;;;;;4.80;3.70;;;9.50;99.90;;;;;;5153472;27;20610;-61
2024/03/20 07:10:37;;;;;;;10.00;6.63;;;10.10;99.90;;;;;;5147761;27;20186;-61
2024/03/20 07:13:05;;;;;;;10.67;6.00;;;10.60;99.90;;;;;;5153339;27;20909;-61
2024/03/20 07:15:32;;;;;;;10.90;8.50;;;11.30;99.90;;;;;;5153251;27;20413;-61
2024/03/20 07:17:58;;;;;;;14.30;9.47;;;11.90;99.90;;;;;;5153058;27;20429;-61
2024/03/20 07:20:24;;;;;;;13.03;8.50;;;12.60;99.90;;;;;;5153003;27;20408;-61
2024/03/20 07:22:51;;;;;;;10.43;7.60;;;13.90;99.90;;;;;;5153289;27;20404;-60
2024/03/20 07:25:16;;;;;;;4.07;3.40;;;15.50;99.90;;;;;;5153165;27;20439;-61
2024/03/20 07:27:42;;;;;;;2.83;2.27;;;16.90;97.00;;;;;;5153100;27;20423;-61
2024/03/20 07:30:09;;;;;;;1.83;1.73;;;18.60;91.10;;;;;;5152593;27;20163;-61
2024/03/20 07:32:37;;;;;;;5.03;2.03;;;19.90;84.40;;;;;;5155058;27;20415;-62
2024/03/20 07:35:03;;;;;;;3.53;2.90;;;20.70;78.00;;;;;;5156432;27;20404;-62
2024/03/20 07:37:29;;;;;;;3.50;1.40;;;21.80;73.30;;;;;;5156944;27;20765;-62
2024/03/20 07:39:55;;;;;;;2.17;1.57;;;22.80;67.80;;;;;;5156924;27;20399;-61
2024/03/20 07:42:20;;;;;;;5.97;3.23;;;23.90;62.90;;;;;;5157013;27;20202;-62
2024/03/20 07:44:47;;;;;;;2.93;2.60;;;25.10;61.60;;;;;;5157106;27;20897;-62
2024/03/20 07:47:13;;;;;;;5.20;4.07;;;26.40;57.80;;;;;;5147697;27;20707;-60
2024/03/20 07:49:40;;;;;;;4.17;2.90;;;27.50;54.50;;;;;;5150417;27;20408;-61
2024/03/20 07:52:05;;;;;;;3.53;2.27;;;28.10;51.10;;;;;;5157153;27;20407;-62
2024/03/20 07:54:33;;;;;;;2.30;2.07;;;28.30;49.10;;;;;;5142475;27;20429;-62
2024/03/20 07:56:59;;;;;;;1.67;1.40;;;28.60;49.10;;;;;;5120461;27;20191;-62
2024/03/20 07:59:25;;;;;;;1.83;1.23;;;29.20;46.90;;;;;;5155432;27;20415;-62
2024/03/20 08:01:52;;;;;;;1.37;0.93;;;29.50;45.00;;;;;;5146450;27;20441;-61
2024/03/20 08:04:19;;;;;;;2.13;1.03;;;29.60;43.60;;;;;;5082576;27;20506;-61
2024/03/20 08:06:45;;;;;;;1.57;1.17;;;29.30;43.50;;;;;;5135217;27;20421;-62
2024/03/20 08:09:11;;;;;;;2.27;2.07;;;28.80;43.60;;;;;;5135635;27;20424;-62
2024/03/20 08:11:37;;;;;;;2.90;2.40;;;28.50;44.00;;;;;;5155716;27;20495;-63
2024/03/20 08:14:08;;;;;;;5.03;3.80;;;28.60;43.90;;;;;;5156489;27;20984;-62
2024/03/20 08:16:37;;;;;;;6.50;4.43;;;28.60;44.20;;;;;;5156209;27;20187;-61
2024/03/20 08:19:05;;;;;;;11.73;5.30;;;28.80;43.50;;;;;;5156299;27;20396;-61
2024/03/20 08:21:33;;;;;;;13.27;8.40;;;29.00;43.00;;;;;;5156525;27;20448;-61
2024/03/20 08:24:00;;;;;;;5.53;4.43;;;29.00;43.00;;;;;;5156306;27;20402;-62
2024/03/20 08:26:27;;;;;;;3.47;3.17;;;28.70;48.50;;;;;;5155075;27;20397;-61
2024/03/20 08:28:52;;;;;;;2.73;2.00;;;28.60;42.80;;;;;;5135189;27;20929;-62
2024/03/20 08:31:19;;;;;;;2.10;1.53;;;28.90;43.50;;;;;;5135368;27;20405;-61
2024/03/20 08:33:45;;;;;;;4.10;1.27;;;29.40;42.50;;;;;;5135522;27;20191;-62
2024/03/20 08:36:12;;;;;;;2.13;1.97;;;29.90;42.50;;;;;;5135316;27;20894;-62
2024/03/20 08:38:37;;;;;;;2.37;2.17;;;30.20;41.30;;;;;;5135163;27;20440;-62
2024/03/20 08:41:04;;;;;;;1.33;1.20;;;30.40;40.70;;;;;;5135001;27;20973;-62
2024/03/20 08:43:30;;;;;;;0.87;0.70;;;30.70;40.80;;;;;;5133903;27;20176;-61
2024/03/20 08:45:56;;;;;;;1.30;0.80;;;31.10;40.10;;;;;;5135449;27;20401;-62
2024/03/20 08:48:21;;;;;;;1.20;1.10;;;31.40;38.10;;;;;;5134876;27;20538;-61
2024/03/20 08:50:47;;;;;;;1.53;1.20;;;31.70;38.00;;;;;;5135063;27;20159;-62
2024/03/20 08:53:13;;;;;;;1.13;1.03;;;31.90;39.10;;;;;;5135142;27;20168;-62
2024/03/20 08:55:40;;;;;;;1.20;1.10;;;32.50;38.10;;;;;;5135029;27;20164;-61
2024/03/20 08:58:06;;;;;;;1.37;1.27;;;32.90;35.80;;;;;;5134605;27;20691;-61
2024/03/20 09:00:33;;;;;;;1.53;1.43;;;31.70;35.40;;;;;;5134695;27;20445;-61
2024/03/20 09:02:59;;;;;;;1.03;0.87;;;31.50;36.80;;;;;;5134844;27;20463;-61
2024/03/20 09:05:25;;;;;;;1.13;1.10;;;31.70;36.10;;;;;;5134665;27;20428;-61
2024/03/20 09:07:51;;;;;;;1.17;1.07;;;32.00;34.70;;;;;;5134490;27;20424;-61
2024/03/20 09:10:17;;;;;;;0.70;0.50;;;31.90;33.40;;;;;;5134016;27;20397;-61
2024/03/20 09:12:43;;;;;;;1.00;0.90;;;32.00;33.10;;;;;;5134698;27;20524;-61
2024/03/20 09:15:09;;;;;;;0.70;0.70;;;31.60;33.50;;;;;;5155044;27;20163;-62
2024/03/20 09:17:35;;;;;;;1.30;0.83;;;30.70;33.20;;;;;;5155164;27;20187;-62
2024/03/20 09:20:15;;;;;;;1.10;0.80;;;29.70;34.10;;;;;;5151684;27;20413;-61
2024/03/20 09:22:49;;;;;;;0.80;0.80;;;28.50;33.10;;;;;;5134021;27;20190;-62
2024/03/20 09:25:15;;;;;;;0.70;0.70;;;27.00;36.10;;;;;;5142070;27;20452;-62
2024/03/20 09:27:41;;;;;;;0.90;0.90;;;26.80;36.80;;;;;;5134224;27;20453;-61
2024/03/20 09:30:08;;;;;;;5.97;0.90;;;27.20;37.40;;;;;;5151566;27;20174;-62
2024/03/20 09:32:35;;;;;;;0.70;0.57;;;27.00;37.20;;;;;;5155063;27;20400;-61
2024/03/20 09:35:01;;;;;;;2.70;0.80;;;27.40;37.10;;;;;;5154885;27;20408;-61
2024/03/20 09:37:29;;;;;;;1.13;0.93;;;27.70;36.10;;;;;;5154679;27;20432;-62
2024/03/20 09:39:59;;;;;;;0.77;0.77;;;27.40;36.20;;;;;;5154331;27;20408;-61
2024/03/20 09:42:30;;;;;;;1.13;1.03;;;26.60;36.70;;;;;;5154436;27;20455;-61
2024/03/20 09:44:56;;;;;;;1.00;0.90;;;26.30;38.80;;;;;;5154982;27;20921;-60
2024/03/20 09:47:24;;;;;;;1.00;0.90;;;25.70;38.50;;;;;;5154418;27;20452;-61
2024/03/20 09:49:52;;;;;;;0.73;0.73;;;25.30;39.90;;;;;;5154237;27;20420;-61
2024/03/20 09:52:19;;;;;;;1.83;0.97;;;25.70;38.50;;;;;;5154479;27;20408;-61
2024/03/20 09:54:45;;;;;;;1.63;0.93;;;26.00;38.30;;;;;;5154063;27;20909;-61
2024/03/20 09:57:14;;;;;;;2.43;1.07;;;26.00;38.30;;;;;;5154374;27;20439;-61
2024/03/20 09:59:52;;;;;;;2.17;0.60;;;26.10;38.30;;;;;;5154215;27;20419;-61
2024/03/20 10:02:21;;;;;;;0.60;0.60;;;25.80;38.60;;;;;;5154850;27;20443;-61
2024/03/20 10:04:47;;;;;;;2.37;0.83;;;25.90;38.90;;;;;;5154223;27;20408;-61
2024/03/20 10:07:14;;;;;;;1.10;0.70;;;25.90;39.30;;;;;;5154160;27;20419;-61
2024/03/20 10:09:46;;;;;;;0.60;0.60;;;25.70;39.70;;;;;;5153923;27;20404;-61
2024/03/20 10:12:15;;;;;;;0.90;0.70;;;25.50;39.00;;;;;;5154154;27;20400;-61
2024/03/20 10:14:42;;;;;;;0.77;0.67;;;25.50;39.70;;;;;;5154260;27;20499;-61
2024/03/20 10:17:25;;;;;;;0.83;0.60;;;25.50;40.30;;;;;;5153783;27;20511;-61
2024/03/20 10:19:51;;;;;;;4.73;0.87;;;25.10;40.30;;;;;;5153701;27;20459;-61
2024/03/20 10:22:17;;;;;;;0.50;0.50;;;24.90;40.20;;;;;;5153082;27;20447;-61
2024/03/20 10:24:42;;;;;;;0.60;0.60;;;24.70;40.60;;;;;;5153934;27;20255;-62
2024/03/20 10:27:09;;;;;;;0.60;0.60;;;24.80;40.80;;;;;;5153974;27;20191;-62
2024/03/20 10:29:38;;;;;;;1.10;0.93;;;24.70;40.00;;;;;;5153650;27;20166;-62
2024/03/20 10:32:05;;;;;;;0.60;0.60;;;24.30;40.30;;;;;;5153811;27;20387;-62
2024/03/20 10:34:33;;;;;;;0.60;0.60;;;23.90;41.50;;;;;;5154097;27;20502;-61
2024/03/20 10:36:59;;;;;;;0.80;0.70;;;23.80;41.40;;;;;;5153753;27;20424;-62
2024/03/20 10:39:27;;;;;;;2.10;0.93;;;23.70;41.70;;;;;;5153810;27;20415;-61
2024/03/20 10:41:54;;;;;;;0.97;0.70;;;23.50;42.30;;;;;;5153658;27;20464;-62
2024/03/20 10:44:21;;;;;;;5.00;1.07;;;23.20;41.80;;;;;;5153556;27;20399;-62
2024/03/20 10:46:57;;;;;;;0.60;0.60;;;22.90;43.60;;;;;;5153512;27;20436;-61
2024/03/20 10:49:23;;;;;;;0.60;0.60;;;22.60;42.30;;;;;;5153530;27;20390;-62
2024/03/20 10:51:52;;;;;;;1.03;0.70;;;22.20;42.80;;;;;;5153512;27;20507;-62
2024/03/20 10:54:19;;;;;;;0.70;0.70;;;22.00;43.50;;;;;;5153366;27;20404;-61
2024/03/20 10:56:49;;;;;;;1.30;0.73;;;21.90;44.20;;;;;;5153382;27;20435;-62
2024/03/20 10:59:23;;;;;;;1.83;1.00;;;21.70;44.70;;;;;;5153470;27;20426;-62
2024/03/20 11:01:57;;;;;;;0.90;0.70;;;21.40;45.00;;;;;;5153668;27;20494;-62
2024/03/20 11:04:41;;;;;;;2.07;0.80;;;21.20;45.30;;;;;;5153801;27;20901;-61
2024/03/20 11:07:23;;;;;;;0.60;0.60;;;21.30;45.40;;;;;;5152651;27;20971;-61
2024/03/20 11:09:50;;;;;;;1.00;0.70;;;21.30;45.60;;;;;;5153110;27;20424;-61
2024/03/20 11:12:30;;;;;;;3.30;1.00;;;21.10;45.70;;;;;;5153216;27;20911;-61
2024/03/20 11:15:16;;;;;;;2.77;0.67;;;20.80;45.60;;;;;;5153315;27;20411;-61
2024/03/20 11:17:48;;;;;;;1.00;0.83;;;20.30;46.60;;;;;;5153232;27;20426;-61
2024/03/20 11:20:35;;;;;;;1.17;0.93;;;19.80;47.10;;;;;;5153045;27;20404;-61
2024/03/20 11:23:05;;;;;;;1.57;0.70;;;19.60;48.00;;;;;;5153398;27;20432;-61
2024/03/20 11:25:34;;;;;;;0.70;0.70;;;19.40;48.40;;;;;;5153312;27;20441;-61
2024/03/20 11:28:00;;;;;;;1.00;0.90;;;19.10;49.20;;;;;;5152943;27;20553;-62
2024/03/20 11:30:26;;;;;;;0.80;0.80;;;19.10;50.60;;;;;;5153058;27;20440;-61
2024/03/20 11:32:52;;;;;;;0.83;0.77;;;19.00;49.50;;;;;;5153186;27;20446;-61
2024/03/20 11:35:18;;;;;;;2.43;0.80;;;19.00;49.90;;;;;;5153108;27;20171;-61
2024/03/20 11:37:44;;;;;;;0.80;0.80;;;19.20;50.40;;;;;;5153060;27;20423;-62
2024/03/20 11:40:11;;;;;;;1.57;0.90;;;19.50;50.00;;;;;;5152864;27;20415;-61
2024/03/20 11:42:37;;;;;;;1.17;1.00;;;19.70;49.60;;;;;;5153020;27;20202;-61
2024/03/20 11:45:09;;;;;;;0.70;0.70;;;19.30;50.20;;;;;;5153206;27;20415;-61
2024/03/20 11:47:34;;;;;;;1.40;0.90;;;19.00;51.00;;;;;;5146838;22;20915;-57
2024/03/20 11:50:00;;;;;;;1.40;1.30;;;18.90;50.90;;;;;;5090745;28;20394;-57
2024/03/20 11:52:25;;;;;;;1.10;0.83;;;19.00;51.40;;;;;;5091359;28;20168;-57
2024/03/20 11:54:52;;;;;;;1.73;0.60;;;18.90;51.10;;;;;;5091428;28;20254;-58
2024/03/20 11:57:19;;;;;;;1.63;1.07;;;19.00;51.30;;;;;;5091118;28;20200;-58
2024/03/20 11:59:52;;;;;;;4.17;0.90;;;19.10;51.00;;;;;;5091097;28;20493;-58
2024/03/20 12:02:21;;;;;;;0.70;0.70;;;19.10;52.50;;;;;;5073143;28;20966;-58
2024/03/20 12:04:48;;;;;;;0.73;0.50;;;19.20;49.20;;;;;;5091358;28;20441;-57
2024/03/20 12:07:27;;;;;;;1.00;0.80;;;19.40;47.50;;;;;;5091231;28;20461;-57
2024/03/20 12:09:53;;;;;;;0.70;0.50;;;19.40;47.70;;;;;;5090885;28;20410;-57
2024/03/20 12:12:20;;;;;;;0.80;0.73;;;19.50;46.10;;;;;;5091166;28;20402;-57
2024/03/20 12:14:47;;;;;;;0.50;0.50;;;19.40;45.00;;;;;;5091425;28;20417;-57
2024/03/20 12:17:12;;;;;;;0.80;0.80;;;19.50;44.70;;;;;;5091677;28;20469;-57
2024/03/20 12:19:38;;;;;;;0.60;0.60;;;19.60;44.70;;;;;;5094554;28;20445;-57
2024/03/20 12:22:05;;;;;;;0.90;0.50;;;19.20;46.10;;;;;;5094660;28;20199;-57
2024/03/20 12:24:31;;;;;;;0.73;0.70;;;19.20;46.20;;;;;;5094519;28;20262;-57
2024/03/20 12:26:57;;;;;;;0.40;0.40;;;19.20;47.20;;;;;;5094624;28;20433;-58
2024/03/20 12:29:22;;;;;;;0.70;0.50;;;19.40;47.20;;;;;;5094343;28;20399;-58
2024/03/20 12:31:48;;;;;;;0.80;0.70;;;19.60;47.80;;;;;;5094634;28;20206;-58
2024/03/20 12:34:15;;;;;;;1.17;0.80;;;19.80;47.20;;;;;;5094599;28;20180;-58
2024/03/20 12:36:41;;;;;;;1.57;1.10;;;19.80;56.50;;;;;;5094553;28;20920;-58
2024/03/20 12:39:08;;;;;;;1.10;1.00;;;19.90;47.80;;;;;;5094142;28;20403;-57
2024/03/20 12:41:34;;;;;;;1.03;0.80;;;19.80;47.80;;;;;;5094450;28;20645;-58
2024/03/20 12:44:00;;;;;;;0.70;0.60;;;19.90;48.80;;;;;;5094354;28;20407;-58
2024/03/20 12:46:26;;;;;;;1.03;0.60;;;19.90;48.70;;;;;;5094227;28;20946;-57
2024/03/20 12:48:52;;;;;;;1.20;0.63;;;20.10;49.50;;;;;;5093795;28;20446;-58
2024/03/20 12:51:19;;;;;;;0.60;0.60;;;20.10;47.50;;;;;;5094138;28;20488;-58